createdAt,value
2017-08-11T00:00:42.479Z,1013.7
2017-08-11T00:01:41.540Z,1013.7
2017-08-11T00:02:40.722Z,1013.7
2017-08-11T00:03:40.422Z,1013.7
2017-08-11T00:04:39.613Z,1013.7
2017-08-11T00:05:38.677Z,1013.7
2017-08-11T00:06:37.860Z,1013.7
2017-08-11T00:07:37.414Z,1013.7
2017-08-11T00:08:36.594Z,1013.7
2017-08-11T00:09:35.783Z,1013.8
2017-08-11T00:10:35.512Z,1013.8
2017-08-11T00:11:34.703Z,1013.8
2017-08-11T00:12:33.657Z,1013.7
2017-08-11T00:13:33.341Z,1013.7
2017-08-11T00:15:31.923Z,1013.7
2017-08-11T00:16:31.110Z,1013.7
2017-08-11T00:17:30.308Z,1013.7
2017-08-11T00:18:29.490Z,1013.7
2017-08-11T00:19:29.178Z,1013.6
2017-08-11T00:20:28.249Z,1013.6
2017-08-11T00:21:27.824Z,1013.6
2017-08-11T00:22:26.908Z,1013.6
2017-08-11T00:23:26.242Z,1013.6
2017-08-11T00:24:25.712Z,1013.6
2017-08-11T00:25:24.661Z,1013.6
2017-08-11T00:26:24.342Z,1013.6
2017-08-11T00:27:23.406Z,1013.6
2017-08-11T00:28:22.466Z,1013.6
2017-08-11T00:30:21.541Z,1013.5
2017-08-11T00:31:20.718Z,1013.5
2017-08-11T00:33:19.165Z,1013.5
2017-08-11T00:34:18.358Z,1013.4
2017-08-11T00:35:18.039Z,1013.4
2017-08-11T00:36:17.229Z,1013.4
2017-08-11T00:38:15.815Z,1013.4
2017-08-11T00:39:14.999Z,1013.4
2017-08-11T00:40:14.186Z,1013.4
2017-08-11T00:41:13.378Z,1013.4
2017-08-11T00:42:13.090Z,1013.4
2017-08-11T00:43:12.268Z,1013.4
2017-08-11T00:44:11.489Z,1013.4
2017-08-11T00:45:10.566Z,1013.3
2017-08-11T00:46:10.246Z,1013.4
2017-08-11T00:47:09.321Z,1013.3
2017-08-11T00:48:08.507Z,1013.4
2017-08-11T00:48:39.001Z,1013.4
2017-08-11T00:49:09.503Z,1013.4
2017-08-11T00:49:39.880Z,1013.4
2017-08-11T00:51:06.754Z,1013.4
2017-08-11T00:52:05.934Z,1013.4
2017-08-11T00:53:05.384Z,1013.3
2017-08-11T00:54:04.576Z,1013.3
2017-08-11T00:55:03.765Z,1013.3
2017-08-11T00:56:03.338Z,1013.3
2017-08-11T00:57:02.421Z,1013.3
2017-08-11T00:58:01.491Z,1013.3
2017-08-11T00:59:01.170Z,1013.3
2017-08-11T00:59:31.531Z,1013.3
2017-08-11T01:00:01.815Z,1013.3
2017-08-11T01:00:32.186Z,1013.3
2017-08-11T01:01:58.819Z,1013.3
2017-08-11T01:02:58.396Z,1013.3
2017-08-11T01:03:57.584Z,1013.3
2017-08-11T01:04:57.046Z,1013.3
2017-08-11T01:05:56.237Z,1013.3
2017-08-11T01:06:55.435Z,1013.2
2017-08-11T01:07:54.628Z,1013.2
2017-08-11T01:08:54.076Z,1013.2
2017-08-11T01:09:53.526Z,1013.2
2017-08-11T01:10:52.769Z,1013.2
2017-08-11T01:11:51.954Z,1013.2
2017-08-11T01:12:51.139Z,1013.2
2017-08-11T01:13:50.307Z,1013.2
2017-08-11T01:14:50.056Z,1013.2
2017-08-11T01:15:49.234Z,1013.3
2017-08-11T01:16:48.425Z,1013.3
2017-08-11T01:17:47.504Z,1013.3
2017-08-11T01:18:17.909Z,1013.3
2017-08-11T01:18:48.396Z,1013.3
2017-08-11T01:19:18.642Z,1013.3
2017-08-11T01:19:49.176Z,1013.3
2017-08-11T01:20:45.861Z,1013.3
2017-08-11T01:21:44.932Z,1013.4
2017-08-11T01:22:44.115Z,1013.3
2017-08-11T01:23:43.808Z,1013.3
2017-08-11T01:24:42.999Z,1013.3
2017-08-11T01:25:42.190Z,1013.3
2017-08-11T01:26:41.286Z,1013.3
2017-08-11T01:27:40.850Z,1013.3
2017-08-11T01:28:40.039Z,1013.2
2017-08-11T01:29:39.219Z,1013.2
2017-08-11T01:30:38.911Z,1013.3
2017-08-11T01:31:38.091Z,1013.2
2017-08-11T01:32:37.269Z,1013.2
2017-08-11T01:33:36.723Z,1013.2
2017-08-11T01:34:35.794Z,1013.2
2017-08-11T01:35:34.987Z,1013.2
2017-08-11T01:36:34.555Z,1013.2
2017-08-11T01:37:33.618Z,1013.2
2017-08-11T01:38:33.061Z,1013.2
2017-08-11T01:39:32.585Z,1013.2
2017-08-11T01:40:02.843Z,1013.2
2017-08-11T01:40:33.099Z,1013.1
2017-08-11T01:41:03.473Z,1013.1
2017-08-11T01:41:33.970Z,1013.2
2017-08-11T01:42:04.339Z,1013.2
2017-08-11T01:43:29.699Z,1013.1
2017-08-11T01:44:29.148Z,1013.1
2017-08-11T01:45:28.332Z,1013.1
2017-08-11T01:46:27.515Z,1013.1
2017-08-11T01:47:26.701Z,1013.1
2017-08-11T01:48:26.408Z,1013.1
2017-08-11T01:49:25.591Z,1013.1
2017-08-11T01:51:24.175Z,1012.8
2017-08-11T01:52:23.228Z,1012.8
2017-08-11T01:53:22.792Z,1012.8
2017-08-11T01:54:21.971Z,1012.8
2017-08-11T01:55:21.147Z,1012.8
2017-08-11T01:56:20.836Z,1012.7
2017-08-11T01:57:19.896Z,1012.7
2017-08-11T01:58:19.080Z,1012.7
2017-08-11T01:59:18.270Z,1012.7
2017-08-11T02:00:17.987Z,1012.7
2017-08-11T02:01:17.164Z,1012.7
2017-08-11T02:02:16.347Z,1012.7
2017-08-11T02:03:15.914Z,1012.7
2017-08-11T02:04:15.111Z,1012.7
2017-08-11T02:05:14.302Z,1012.6
2017-08-11T02:06:13.477Z,1012.6
2017-08-11T02:07:13.165Z,1012.6
2017-08-11T02:08:12.225Z,1012.5
2017-08-11T02:09:11.419Z,1012.5
2017-08-11T02:10:10.990Z,1012.5
2017-08-11T02:11:10.054Z,1012.5
2017-08-11T02:11:40.552Z,1012.5
2017-08-11T02:12:11.056Z,1012.5
2017-08-11T02:14:08.112Z,1012.5
2017-08-11T02:15:07.179Z,1012.5
2017-08-11T02:16:06.744Z,1012.6
2017-08-11T02:17:05.803Z,1012.5
2017-08-11T02:18:05.371Z,1012.6
2017-08-11T02:19:04.316Z,1012.6
2017-08-11T02:20:03.778Z,1012.6
2017-08-11T02:21:03.361Z,1012.6
2017-08-11T02:22:02.320Z,1012.6
2017-08-11T02:23:02.017Z,1012.6
2017-08-11T02:24:01.207Z,1012.7
2017-08-11T02:25:00.312Z,1012.7
2017-08-11T02:25:59.884Z,1012.7
2017-08-11T02:26:58.958Z,1012.8
2017-08-11T02:27:58.207Z,1012.7
2017-08-11T02:28:57.393Z,1012.8
2017-08-11T02:29:57.098Z,1012.8
2017-08-11T02:30:56.282Z,1012.8
2017-08-11T02:31:55.520Z,1012.8
2017-08-11T02:32:55.006Z,1012.9
2017-08-11T02:33:54.079Z,1012.8
2017-08-11T02:34:53.267Z,1012.8
2017-08-11T02:35:52.856Z,1012.8
2017-08-11T02:36:51.937Z,1012.8
2017-08-11T02:37:22.439Z,1012.8
2017-08-11T02:38:50.714Z,1012.8
2017-08-11T02:39:49.936Z,1012.8
2017-08-11T02:40:49.012Z,1012.8
2017-08-11T02:41:48.584Z,1012.8
2017-08-11T02:42:47.657Z,1012.8
2017-08-11T02:43:47.241Z,1012.8
2017-08-11T02:44:46.434Z,1012.8
2017-08-11T02:45:45.789Z,1012.8
2017-08-11T02:46:44.998Z,1012.9
2017-08-11T02:47:44.074Z,1012.9
2017-08-11T02:48:14.578Z,1012.9
2017-08-11T02:48:45.106Z,1012.9
2017-08-11T02:49:15.689Z,1012.9
2017-08-11T02:49:46.185Z,1013.1
2017-08-11T02:50:42.271Z,1013.1
2017-08-11T02:51:41.451Z,1013.1
2017-08-11T02:52:40.612Z,1013.1
2017-08-11T02:53:39.807Z,1013.1
2017-08-11T02:54:39.520Z,1013.1
2017-08-11T02:55:38.612Z,1013.1
2017-08-11T02:56:38.058Z,1013.1
2017-08-11T02:57:37.259Z,1013.1
2017-08-11T02:58:36.461Z,1013.1
2017-08-11T02:59:35.799Z,1013.1
2017-08-11T03:00:34.988Z,1013.1
2017-08-11T03:01:34.561Z,1013.1
2017-08-11T03:02:33.637Z,1013.1
2017-08-11T03:03:32.718Z,1012.9
2017-08-11T03:04:32.418Z,1012.9
2017-08-11T03:05:31.502Z,1013.1
2017-08-11T03:06:30.697Z,1013.1
2017-08-11T03:07:01.200Z,1013.1
2017-08-11T03:07:31.708Z,1013.1
2017-08-11T03:08:02.049Z,1013.1
2017-08-11T03:09:28.425Z,1013.1
2017-08-11T03:10:28.128Z,1013.2
2017-08-11T03:11:27.086Z,1013.1
2017-08-11T03:12:26.417Z,1013.1
2017-08-11T03:13:25.871Z,1013.1
2017-08-11T03:14:24.836Z,1013.1
2017-08-11T03:15:24.542Z,1013.1
2017-08-11T03:16:23.728Z,1013.1
2017-08-11T03:17:22.788Z,1013.1
2017-08-11T03:18:22.366Z,1013.1
2017-08-11T03:19:21.453Z,1013.2
2017-08-11T03:20:20.529Z,1013.2
2017-08-11T03:21:20.101Z,1013.1
2017-08-11T03:22:19.174Z,1013.1
2017-08-11T03:23:18.368Z,1013.1
2017-08-11T03:24:18.064Z,1013.1
2017-08-11T03:25:17.148Z,1013.1
2017-08-11T03:26:16.342Z,1013.1
2017-08-11T03:27:15.544Z,1013.1
2017-08-11T03:28:14.741Z,1013.1
2017-08-11T03:28:45.249Z,1013.1
2017-08-11T03:29:15.758Z,1013.1
2017-08-11T03:29:46.272Z,1013.1
2017-08-11T03:30:16.789Z,1013.1
2017-08-11T03:30:47.312Z,1013.1
2017-08-11T03:32:12.194Z,1013.1
2017-08-11T03:33:11.399Z,1013.2
2017-08-11T03:34:10.604Z,1013.1
2017-08-11T03:35:09.821Z,1013.1
2017-08-11T03:36:09.041Z,1013.1
2017-08-11T03:37:08.233Z,1013.1
2017-08-11T03:38:07.824Z,1013.1
2017-08-11T03:39:06.901Z,1013.1
2017-08-11T03:40:06.083Z,1013.1
2017-08-11T03:41:05.780Z,1013.2
2017-08-11T03:43:03.860Z,1013.2
2017-08-11T03:44:03.432Z,1013.2
2017-08-11T03:45:02.611Z,1013.2
2017-08-11T03:46:02.080Z,1013.3
2017-08-11T03:47:01.281Z,1013.3
2017-08-11T03:48:00.476Z,1013.3
2017-08-11T03:48:31.136Z,1013.3
2017-08-11T03:49:59.026Z,1013.3
2017-08-11T03:50:58.096Z,1013.3
2017-08-11T03:51:57.273Z,1013.3
2017-08-11T03:52:56.981Z,1013.3
2017-08-11T03:53:56.168Z,1013.4
2017-08-11T03:54:55.246Z,1013.4
2017-08-11T03:55:54.432Z,1013.5
2017-08-11T03:56:54.011Z,1013.4
2017-08-11T03:57:52.968Z,1013.4
2017-08-11T03:58:23.347Z,1013.4
2017-08-11T03:58:53.852Z,1013.4
2017-08-11T03:59:24.135Z,1013.4
2017-08-11T03:59:54.391Z,1013.4
2017-08-11T04:00:25.045Z,1013.4
2017-08-11T04:00:55.557Z,1013.4
2017-08-11T04:01:25.944Z,1013.4
2017-08-11T04:01:56.340Z,1013.4
2017-08-11T04:02:49.382Z,1013.5
2017-08-11T04:03:48.570Z,1013.5
2017-08-11T04:04:47.772Z,1013.5
2017-08-11T04:05:46.981Z,1013.5
2017-08-11T04:06:46.691Z,1013.5
2017-08-11T04:07:45.891Z,1013.5
2017-08-11T04:08:45.088Z,1013.5
2017-08-11T04:09:44.290Z,1013.5
2017-08-11T04:10:43.361Z,1013.5
2017-08-11T04:11:42.692Z,1013.5
2017-08-11T04:12:41.894Z,1013.5
2017-08-11T04:13:41.488Z,1013.6
2017-08-11T04:14:40.573Z,1013.6
2017-08-11T04:15:39.759Z,1013.6
2017-08-11T04:16:38.941Z,1013.6
2017-08-11T04:17:38.127Z,1013.6
2017-08-11T04:18:37.833Z,1013.6
2017-08-11T04:19:37.018Z,1013.6
2017-08-11T04:20:36.201Z,1013.6
2017-08-11T04:21:35.390Z,1013.6
2017-08-11T04:22:34.467Z,1013.7
2017-08-11T04:24:33.055Z,1013.7
2017-08-11T04:25:32.246Z,1013.8
2017-08-11T04:26:31.939Z,1013.8
2017-08-11T04:27:31.125Z,1013.8
2017-08-11T04:28:30.080Z,1013.8
2017-08-11T04:29:29.277Z,1013.8
2017-08-11T04:30:28.965Z,1013.8
2017-08-11T04:31:28.182Z,1013.8
2017-08-11T04:32:27.251Z,1013.8
2017-08-11T04:33:26.585Z,1013.8
2017-08-11T04:34:25.922Z,1013.8
2017-08-11T04:35:25.003Z,1013.8
2017-08-11T04:36:24.088Z,1013.8
2017-08-11T04:37:23.285Z,1013.7
2017-08-11T04:38:22.860Z,1013.8
2017-08-11T04:39:22.043Z,1013.8
2017-08-11T04:40:21.226Z,1013.7
2017-08-11T04:41:20.425Z,1013.7
2017-08-11T04:42:19.626Z,1013.7
2017-08-11T04:43:19.319Z,1013.7
2017-08-11T04:44:18.517Z,1013.7
2017-08-11T04:45:17.711Z,1013.6
2017-08-11T04:46:16.916Z,1013.6
2017-08-11T04:47:16.104Z,1013.6
2017-08-11T04:48:15.578Z,1013.6
2017-08-11T04:50:14.053Z,1013.5
2017-08-11T04:51:13.124Z,1013.5
2017-08-11T04:52:12.598Z,1013.4
2017-08-11T04:53:11.679Z,1013.3
2017-08-11T04:54:10.633Z,1013.3
2017-08-11T04:54:41.139Z,1013.3
2017-08-11T04:55:11.522Z,1013.3
2017-08-11T04:55:41.910Z,1013.3
2017-08-11T04:56:12.409Z,1013.3
2017-08-11T04:56:42.804Z,1013.3
2017-08-11T04:58:07.699Z,1013.3
2017-08-11T04:59:07.167Z,1013.3
2017-08-11T05:00:06.367Z,1013.3
2017-08-11T05:01:05.828Z,1013.3
2017-08-11T05:02:04.812Z,1013.4
2017-08-11T05:03:04.389Z,1013.4
2017-08-11T05:05:02.860Z,1013.3
2017-08-11T05:06:02.060Z,1013.2
2017-08-11T05:07:01.055Z,1013.2
2017-08-11T05:08:00.634Z,1013.2
2017-08-11T05:08:31.140Z,1013.2
2017-08-11T05:09:59.031Z,1013.4
2017-08-11T05:10:58.105Z,1013.4
2017-08-11T05:11:57.197Z,1013.4
2017-08-11T05:12:56.768Z,1013.4
2017-08-11T05:13:55.969Z,1013.4
2017-08-11T05:14:55.167Z,1013.4
2017-08-11T05:15:54.366Z,1013.4
2017-08-11T05:16:53.554Z,1013.4
2017-08-11T05:17:24.078Z,1013.4
2017-08-11T05:17:54.588Z,1013.4
2017-08-11T05:18:52.275Z,1013.5
2017-08-11T05:19:51.484Z,1013.4
2017-08-11T05:20:50.679Z,1013.4
2017-08-11T05:21:49.872Z,1013.4
2017-08-11T05:22:48.955Z,1013.5
2017-08-11T05:24:47.530Z,1013.5
2017-08-11T05:25:46.992Z,1013.5
2017-08-11T05:26:46.173Z,1013.5
2017-08-11T05:27:45.258Z,1013.5
2017-08-11T05:28:44.594Z,1013.5
2017-08-11T05:29:43.794Z,1013.5
2017-08-11T05:30:42.982Z,1013.5
2017-08-11T05:31:42.201Z,1013.6
2017-08-11T05:32:41.547Z,1013.6
2017-08-11T05:33:41.010Z,1013.7
2017-08-11T05:34:40.077Z,1013.7
2017-08-11T05:35:10.584Z,1013.7
2017-08-11T05:35:41.098Z,1013.7
2017-08-11T05:36:38.786Z,1013.6
2017-08-11T05:37:38.000Z,1013.6
2017-08-11T05:38:37.206Z,1013.6
2017-08-11T05:39:36.404Z,1013.5
2017-08-11T05:40:35.596Z,1013.6
2017-08-11T05:41:35.189Z,1013.6
2017-08-11T05:42:34.276Z,1013.6
2017-08-11T05:43:33.348Z,1013.6
2017-08-11T05:44:32.930Z,1013.7
2017-08-11T05:45:31.882Z,1013.7
2017-08-11T05:46:02.268Z,1013.7
2017-08-11T05:46:32.852Z,1013.7
2017-08-11T05:47:03.375Z,1013.7
2017-08-11T05:47:33.891Z,1013.7
2017-08-11T05:48:04.285Z,1013.7
2017-08-11T05:49:28.915Z,1013.7
2017-08-11T05:50:28.115Z,1013.7
2017-08-11T05:51:27.643Z,1013.7
2017-08-11T05:52:26.598Z,1013.7
2017-08-11T05:53:25.790Z,1013.7
2017-08-11T05:54:24.982Z,1013.8
2017-08-11T05:55:24.673Z,1013.7
2017-08-11T05:56:23.754Z,1013.7
2017-08-11T05:57:22.829Z,1013.8
2017-08-11T05:58:22.424Z,1013.8
2017-08-11T05:59:21.510Z,1013.8
2017-08-11T06:00:20.702Z,1013.9
2017-08-11T06:01:19.896Z,1013.9
2017-08-11T06:02:19.099Z,1014
2017-08-11T06:03:18.696Z,1014
2017-08-11T06:04:17.912Z,1014
2017-08-11T06:05:17.103Z,1014
2017-08-11T06:06:16.295Z,1014.1
2017-08-11T06:07:15.492Z,1014.1
2017-08-11T06:08:14.568Z,1014.2
2017-08-11T06:09:13.753Z,1014.2
2017-08-11T06:10:13.445Z,1014.2
2017-08-11T06:11:12.544Z,1014.3
2017-08-11T06:12:11.623Z,1014.3
2017-08-11T06:13:11.083Z,1014.2
2017-08-11T06:14:10.279Z,1014.3
2017-08-11T06:15:09.232Z,1014.2
2017-08-11T06:16:08.829Z,1014.2
2017-08-11T06:17:08.018Z,1014.2
2017-08-11T06:18:07.093Z,1014.2
2017-08-11T06:19:06.667Z,1014.1
2017-08-11T06:20:05.856Z,1014.1
2017-08-11T06:21:04.825Z,1014
2017-08-11T06:22:04.025Z,1014
2017-08-11T06:23:03.601Z,1014
2017-08-11T06:24:02.798Z,1014
2017-08-11T06:25:01.878Z,1014.1
2017-08-11T06:26:01.089Z,1014.1
2017-08-11T06:27:00.547Z,1014.1
2017-08-11T06:27:59.634Z,1014.1
2017-08-11T06:28:59.211Z,1014.1
2017-08-11T06:29:58.412Z,1014.1
2017-08-11T06:30:57.913Z,1014
2017-08-11T06:32:56.003Z,1013.9
2017-08-11T06:33:55.204Z,1013.9
2017-08-11T06:34:54.400Z,1013.9
2017-08-11T06:35:53.623Z,1013.9
2017-08-11T06:36:52.832Z,1013.9
2017-08-11T06:37:52.023Z,1013.8
2017-08-11T06:38:51.732Z,1013.8
2017-08-11T06:39:50.797Z,1013.8
2017-08-11T06:40:49.892Z,1013.8
2017-08-11T06:41:49.085Z,1013.8
2017-08-11T06:42:19.593Z,1013.8
2017-08-11T06:42:49.855Z,1013.7
2017-08-11T06:43:20.364Z,1013.7
2017-08-11T06:43:50.630Z,1013.7
2017-08-11T06:44:20.902Z,1013.7
2017-08-11T06:44:51.402Z,1013.7
2017-08-11T06:45:21.692Z,1013.7
2017-08-11T06:46:45.448Z,1013.7
2017-08-11T06:47:45.024Z,1013.7
2017-08-11T06:48:43.974Z,1013.7
2017-08-11T06:49:43.550Z,1013.7
2017-08-11T06:50:42.738Z,1013.6
2017-08-11T06:51:41.809Z,1013.6
2017-08-11T06:52:41.007Z,1013.6
2017-08-11T06:53:40.196Z,1013.5
2017-08-11T06:54:10.709Z,1013.5
2017-08-11T06:54:41.205Z,1013.5
2017-08-11T06:55:11.722Z,1013.5
2017-08-11T06:55:42.111Z,1013.5
2017-08-11T06:56:38.165Z,1013.5
2017-08-11T06:57:37.221Z,1013.5
2017-08-11T06:58:36.792Z,1013.5
2017-08-11T06:59:35.979Z,1013.4
2017-08-11T07:00:35.179Z,1013.4
2017-08-11T07:01:34.365Z,1013.4
2017-08-11T07:02:33.571Z,1013.4
2017-08-11T07:03:32.748Z,1013.4
2017-08-11T07:04:32.342Z,1013.4
2017-08-11T07:05:31.472Z,1013.3
2017-08-11T07:06:30.676Z,1013.3
2017-08-11T07:07:30.019Z,1013.3
2017-08-11T07:08:29.200Z,1013.4
2017-08-11T07:09:28.393Z,1013.4
2017-08-11T07:10:27.597Z,1013.4
2017-08-11T07:11:26.668Z,1013.4
2017-08-11T07:11:56.945Z,1013.4
2017-08-11T07:12:27.465Z,1013.4
2017-08-11T07:12:57.858Z,1013.4
2017-08-11T07:14:24.620Z,1013.4
2017-08-11T07:15:23.820Z,1013.4
2017-08-11T07:16:23.401Z,1013.4
2017-08-11T07:17:22.473Z,1013.4
2017-08-11T07:18:21.946Z,1013.5
2017-08-11T07:19:21.026Z,1013.5
2017-08-11T07:20:20.100Z,1013.5
2017-08-11T07:21:19.544Z,1013.5
2017-08-11T07:22:18.732Z,1013.5
2017-08-11T07:23:17.917Z,1013.5
2017-08-11T07:24:17.004Z,1013.5
2017-08-11T07:25:16.590Z,1013.5
2017-08-11T07:27:15.061Z,1013.6
2017-08-11T07:28:14.251Z,1013.6
2017-08-11T07:29:13.317Z,1013.6
2017-08-11T07:30:13.018Z,1013.6
2017-08-11T07:31:12.093Z,1013.7
2017-08-11T07:32:11.301Z,1013.8
2017-08-11T07:33:10.492Z,1013.8
2017-08-11T07:34:09.685Z,1013.7
2017-08-11T07:34:40.200Z,1013.7
2017-08-11T07:35:10.708Z,1013.8
2017-08-11T07:35:41.216Z,1013.8
2017-08-11T07:37:07.471Z,1013.8
2017-08-11T07:38:07.045Z,1013.8
2017-08-11T07:39:06.240Z,1013.8
2017-08-11T07:40:05.443Z,1013.9
2017-08-11T07:41:04.522Z,1014
2017-08-11T07:42:03.714Z,1014
2017-08-11T07:43:03.421Z,1014.1
2017-08-11T07:44:02.498Z,1014.1
2017-08-11T07:45:01.947Z,1014.3
2017-08-11T07:46:00.798Z,1014.3
2017-08-11T07:47:00.377Z,1014.3
2017-08-11T07:47:59.460Z,1014.3
2017-08-11T07:48:58.551Z,1014.3
2017-08-11T07:49:58.267Z,1014.3
2017-08-11T07:50:57.473Z,1014
2017-08-11T07:51:56.557Z,1014
2017-08-11T07:52:55.626Z,1013.9
2017-08-11T07:53:55.203Z,1014
2017-08-11T07:54:25.740Z,1014
2017-08-11T07:54:56.251Z,1014
2017-08-11T07:55:26.760Z,1014
2017-08-11T07:56:53.012Z,1014
2017-08-11T07:57:52.201Z,1014
2017-08-11T07:58:51.286Z,1014
2017-08-11T07:59:50.871Z,1014.3
2017-08-11T08:00:50.072Z,1014.3
2017-08-11T08:01:49.155Z,1014.3
2017-08-11T08:02:48.348Z,1014.3
2017-08-11T08:03:47.931Z,1014.3
2017-08-11T08:04:47.008Z,1014.2
2017-08-11T08:05:17.672Z,1014.2
2017-08-11T08:06:45.553Z,1014.2
2017-08-11T08:07:44.750Z,1014.2
2017-08-11T08:08:43.952Z,1014.2
2017-08-11T08:10:42.558Z,1014.3
2017-08-11T08:11:41.742Z,1014.2
2017-08-11T08:12:41.443Z,1014.3
2017-08-11T08:13:40.539Z,1014.3
2017-08-11T08:14:39.727Z,1014.2
2017-08-11T08:15:38.815Z,1014.2
2017-08-11T08:16:38.162Z,1014.3
2017-08-11T08:17:37.740Z,1014.3
2017-08-11T08:18:36.932Z,1014.4
2017-08-11T08:19:36.133Z,1014.4
2017-08-11T08:20:35.335Z,1014.4
2017-08-11T08:21:34.429Z,1014.5
2017-08-11T08:22:34.006Z,1014.5
2017-08-11T08:23:33.339Z,1014.4
2017-08-11T08:24:32.407Z,1014.4
2017-08-11T08:25:31.999Z,1014.3
2017-08-11T08:26:31.223Z,1014.3
2017-08-11T08:27:30.397Z,1014.2
2017-08-11T08:28:29.472Z,1014.3
2017-08-11T08:29:28.667Z,1014.3
2017-08-11T08:30:28.357Z,1014.4
2017-08-11T08:30:58.864Z,1014.4
2017-08-11T08:32:26.739Z,1014.5
2017-08-11T08:33:25.818Z,1014.5
2017-08-11T08:34:25.397Z,1014.5
2017-08-11T08:35:24.359Z,1014.5
2017-08-11T08:36:23.953Z,1014.5
2017-08-11T08:37:22.908Z,1014.3
2017-08-11T08:38:22.495Z,1014.2
2017-08-11T08:39:21.558Z,1014.2
2017-08-11T08:40:21.034Z,1014.2
2017-08-11T08:41:20.115Z,1014.3
2017-08-11T08:42:19.314Z,1014.4
2017-08-11T08:43:18.517Z,1014.4
2017-08-11T08:44:17.975Z,1014.6
2017-08-11T08:45:17.169Z,1014.6
2017-08-11T08:46:16.365Z,1014.6
2017-08-11T08:47:15.554Z,1014.6
2017-08-11T08:48:15.241Z,1014.6
2017-08-11T08:49:14.431Z,1014.6
2017-08-11T08:50:13.386Z,1014.6
2017-08-11T08:51:12.849Z,1014.6
2017-08-11T08:52:12.035Z,1014.6
2017-08-11T08:53:11.508Z,1014.6
2017-08-11T08:54:10.594Z,1014.6
2017-08-11T08:55:09.792Z,1014.6
2017-08-11T08:56:09.372Z,1014.7
2017-08-11T08:57:08.344Z,1014.7
2017-08-11T08:58:07.539Z,1014.7
2017-08-11T08:59:07.233Z,1014.7
2017-08-11T09:00:06.189Z,1014.6
2017-08-11T09:00:36.584Z,1014.6
2017-08-11T09:01:07.089Z,1014.6
2017-08-11T09:01:37.591Z,1014.6
2017-08-11T09:02:07.860Z,1014.6
2017-08-11T09:02:38.242Z,1014.6
2017-08-11T09:04:03.375Z,1014.6
2017-08-11T09:05:02.576Z,1014.6
2017-08-11T09:06:01.777Z,1014.6
2017-08-11T09:07:01.475Z,1014.6
2017-08-11T09:08:00.548Z,1014.6
2017-08-11T09:08:59.746Z,1014.7
2017-08-11T09:09:59.317Z,1014.7
2017-08-11T09:10:58.511Z,1014.8
2017-08-11T09:11:28.898Z,1014.8
2017-08-11T09:11:59.398Z,1014.8
2017-08-11T09:12:29.786Z,1014.8
2017-08-11T09:13:56.157Z,1014.8
2017-08-11T09:14:26.687Z,1014.8
2017-08-11T09:14:57.193Z,1014.8
2017-08-11T09:15:54.771Z,1014.8
2017-08-11T09:16:54.127Z,1014.8
2017-08-11T09:17:53.319Z,1014.8
2017-08-11T09:18:52.905Z,1014.8
2017-08-11T09:19:51.990Z,1014.8
2017-08-11T09:20:51.066Z,1014.8
2017-08-11T09:21:50.654Z,1014.8
2017-08-11T09:22:49.854Z,1014.8
2017-08-11T09:23:49.057Z,1014.8
2017-08-11T09:24:19.445Z,1014.8
2017-08-11T09:24:49.942Z,1014.8
2017-08-11T09:25:20.447Z,1014.8
2017-08-11T09:25:50.953Z,1014.8
2017-08-11T09:26:47.005Z,1014.8
2017-08-11T09:27:46.201Z,1014.8
2017-08-11T09:28:45.395Z,1014.8
2017-08-11T09:29:44.594Z,1014.8
2017-08-11T09:30:44.165Z,1014.8
2017-08-11T09:31:43.247Z,1014.8
2017-08-11T09:32:42.720Z,1014.8
2017-08-11T09:33:41.788Z,1014.8
2017-08-11T09:34:40.980Z,1014.8
2017-08-11T09:35:40.544Z,1014.8
2017-08-11T09:36:39.732Z,1014.8
2017-08-11T09:37:38.921Z,1014.8
2017-08-11T09:38:38.115Z,1014.8
2017-08-11T09:39:37.717Z,1014.8
2017-08-11T09:40:36.809Z,1014.8
2017-08-11T09:41:36.017Z,1014.8
2017-08-11T09:42:06.550Z,1014.8
2017-08-11T09:42:36.934Z,1014.8
2017-08-11T09:43:07.441Z,1014.8
2017-08-11T09:43:37.823Z,1014.8
2017-08-11T09:44:08.214Z,1014.8
2017-08-11T09:45:33.341Z,1014.8
2017-08-11T09:46:32.422Z,1014.8
2017-08-11T09:47:32.002Z,1014.8
2017-08-11T09:48:31.080Z,1014.8
2017-08-11T09:49:30.666Z,1014.8
2017-08-11T09:50:29.738Z,1014.8
2017-08-11T09:51:29.205Z,1014.8
2017-08-11T09:52:28.280Z,1014.8
2017-08-11T09:52:58.783Z,1014.8
2017-08-11T09:53:29.179Z,1014.8
2017-08-11T09:53:59.581Z,1014.8
2017-08-11T09:55:26.104Z,1013.8
2017-08-11T09:56:25.460Z,1013.8
2017-08-11T09:58:24.033Z,1013.7
2017-08-11T09:59:23.225Z,1013.7
2017-08-11T10:00:22.815Z,1013.7
2017-08-11T10:01:21.912Z,1013.7
2017-08-11T10:02:21.105Z,1013.6
2017-08-11T10:03:20.179Z,1013.6
2017-08-11T10:04:19.873Z,1013.5
2017-08-11T10:05:19.062Z,1013.4
2017-08-11T10:06:18.247Z,1013.4
2017-08-11T10:07:17.439Z,1013.3
2017-08-11T10:08:16.630Z,1013.4
2017-08-11T10:09:16.216Z,1013.5
2017-08-11T10:10:15.403Z,1013.6
2017-08-11T10:11:14.604Z,1013.5
2017-08-11T10:12:14.186Z,1013.4
2017-08-11T10:13:13.156Z,1013.2
2017-08-11T10:14:12.616Z,1012.9
2017-08-11T10:15:11.696Z,1012.7
2017-08-11T10:16:11.388Z,1012.7
2017-08-11T10:17:10.581Z,1012.7
2017-08-11T10:18:09.548Z,1012.7
2017-08-11T10:19:09.880Z,1012.7
2017-08-11T10:20:08.582Z,1012.5
2017-08-11T10:21:07.536Z,1012.4
2017-08-11T10:22:06.986Z,1012.4
2017-08-11T10:23:06.171Z,1012.4
2017-08-11T10:24:05.742Z,1012.3
2017-08-11T10:25:04.708Z,1012.3
2017-08-11T10:26:04.232Z,1012.2
2017-08-11T10:27:03.213Z,1012.1
2017-08-11T10:28:02.678Z,1012.1
2017-08-11T10:29:01.879Z,1012.1
2017-08-11T10:30:01.455Z,1012.2
2017-08-11T10:31:00.415Z,1012.3
2017-08-11T10:31:59.988Z,1012.4
2017-08-11T10:32:59.331Z,1012.5
2017-08-11T10:33:58.540Z,1012.6
2017-08-11T10:34:57.728Z,1012.6
2017-08-11T10:35:56.839Z,1012.7
2017-08-11T10:36:56.536Z,1012.9
2017-08-11T10:37:55.613Z,1013.1
2017-08-11T10:38:55.089Z,1013.1
2017-08-11T10:39:54.274Z,1013.1
2017-08-11T10:40:53.220Z,1013.1
2017-08-11T10:41:52.530Z,1013.1
2017-08-11T10:42:52.108Z,1013.2
2017-08-11T10:43:51.305Z,1013.2
2017-08-11T10:44:50.873Z,1013.3
2017-08-11T10:45:50.101Z,1013.3
2017-08-11T10:46:49.456Z,1013.3
2017-08-11T10:47:48.301Z,1013.2
2017-08-11T10:48:48.001Z,1012.9
2017-08-11T10:49:18.506Z,1012.9
2017-08-11T10:49:49.014Z,1012.8
2017-08-11T10:50:19.396Z,1012.8
2017-08-11T10:50:49.788Z,1012.8
2017-08-11T10:51:20.288Z,1012.8
2017-08-11T10:52:45.142Z,1012.9
2017-08-11T10:53:44.258Z,1013.1
2017-08-11T10:54:43.462Z,1013.1
2017-08-11T10:55:43.047Z,1013.1
2017-08-11T10:56:42.239Z,1013.1
2017-08-11T10:57:41.437Z,1013.2
2017-08-11T10:58:41.011Z,1013.3
2017-08-11T10:59:40.200Z,1013.3
2017-08-11T11:00:10.588Z,1013.3
2017-08-11T11:00:40.970Z,1013.3
2017-08-11T11:01:38.421Z,1013.5
2017-08-11T11:02:08.925Z,1013.5
2017-08-11T11:02:39.197Z,1013.5
2017-08-11T11:03:37.416Z,1013.5
2017-08-11T11:04:36.373Z,1013.5
2017-08-11T11:05:36.078Z,1013.5
2017-08-11T11:06:35.266Z,1013.4
2017-08-11T11:07:34.339Z,1013.4
2017-08-11T11:08:33.912Z,1013.3
2017-08-11T11:09:33.250Z,1013.5
2017-08-11T11:10:32.456Z,1013.5
2017-08-11T11:11:31.540Z,1013.6
2017-08-11T11:12:30.729Z,1013.7
2017-08-11T11:13:30.317Z,1013.7
2017-08-11T11:14:29.518Z,1013.7
2017-08-11T11:15:28.980Z,1013.7
2017-08-11T11:16:28.176Z,1013.8
2017-08-11T11:17:27.371Z,1013.9
2017-08-11T11:18:26.486Z,1014
2017-08-11T11:18:56.993Z,1014
2017-08-11T11:19:27.381Z,1014
2017-08-11T11:19:57.914Z,1014
2017-08-11T11:21:24.680Z,1014
2017-08-11T11:22:23.757Z,1014.1
2017-08-11T11:23:23.326Z,1014.1
2017-08-11T11:24:22.517Z,1014.1
2017-08-11T11:25:21.970Z,1014.2
2017-08-11T11:26:21.050Z,1014.2
2017-08-11T11:27:20.126Z,1014.2
2017-08-11T11:28:19.738Z,1014.2
2017-08-11T11:29:18.930Z,1014.2
2017-08-11T11:30:18.119Z,1014.2
2017-08-11T11:31:17.308Z,1014.2
2017-08-11T11:32:16.892Z,1014.1
2017-08-11T11:33:16.092Z,1014.2
2017-08-11T11:34:15.559Z,1014.2
2017-08-11T11:35:14.750Z,1014.2
2017-08-11T11:36:14.225Z,1014.3
2017-08-11T11:37:13.184Z,1014.3
2017-08-11T11:38:12.782Z,1014.3
2017-08-11T11:39:11.970Z,1014.4
2017-08-11T11:40:11.182Z,1014.4
2017-08-11T11:41:10.378Z,1014.4
2017-08-11T11:41:40.889Z,1014.4
2017-08-11T11:42:11.150Z,1014.4
2017-08-11T11:42:41.538Z,1014.4
2017-08-11T11:44:08.559Z,1014.4
2017-08-11T11:45:07.644Z,1014.4
2017-08-11T11:46:06.720Z,1014.4
2017-08-11T11:47:06.195Z,1014.4
2017-08-11T11:48:05.786Z,1014.5
2017-08-11T11:49:04.750Z,1014.5
2017-08-11T11:50:03.947Z,1014.5
2017-08-11T11:51:03.586Z,1014.6
2017-08-11T11:52:02.811Z,1014.5